Bucks Bridge, New York
Current Conditions -  °F | °C
As of 10:53 AM on Friday 24 Oct 2014 (Local Time) from KMSS Reporting Station
Overcast Overcast  
Wind Chill: 51°   Ceiling: 3600
Heat Index: 51°   Visibility: NA
Dew Point: 43°   Wind: 0mph
Humidity: 74%   Direction: NA
Pressure: 29.93"   Gusts: NA
Location:  44.5792°N, 75.1592°W
Report Text: KMSS 241453Z AUTO 00000KT FEW030 OVC036 11/06 A2993 RMK AO2 SLP137 T01060061 58003 $
Loading
Personal Weather Stations






























Interactive Weather Map
Tropical Storm Tracking
New forecast layout! Learn more

10-Day Weather Forecast

Advertisements
Track Severe Weather on mobile